Terminal Aerodrome Forecast
Issued by NWS Sterling, VA

Home | Current Version | Previous Version | Text Only | Print | Product List | Glossary On
Versions: 1 2 3 4 5 6 7 8 9 10 11 12 13 14 15 16 17 18 19 20 21 22 23 24 25 26 27 28
000
FTUS41 KLWX 192342
TAFBWI
TAF
KBWI 192342Z 2000/2106 VRB03KT P6SM FEW150 BKN250
     FM201400 12004KT 6SM -RA SCT025 OVC040
     FM201600 14006KT 3SM -RA SCT008 OVC025
     FM202100 14006KT 5SM -DZ BR SCT008 OVC010
     FM210300 VRB03KT 4SM -DZ BR SCT003 OVC008=

USA.gov is the U.S. government's official web portal to all federal, state and local government web resources and services.